Time;durP1;ratioP1;P1;durP2;ratioP2;P2;SDS_P1;SDS_P2;PMS_P1;PMS_P2;Temp;Humidity;BMP_temperature;BMP_pressure;BME280_temperature;BME280_humidity;BME280_pressure;Samples;Min_cycle;Max_cycle;Signal;HPM_P1;HPM_P2
2021/05/13 00:02:14;;;;;;;1.00;0.70;;;;;;;;;;5051620;28;20566;-73
2021/05/13 00:04:40;;;;;;;1.00;0.70;;;;;;;;;;5050446;28;20180;-72
2021/05/13 00:07:06;;;;;;;2.00;1.80;;;;;;;;;;5050809;28;20189;-72
2021/05/13 00:09:33;;;;;;;1.00;0.63;;;;;;;;;;5051263;28;20423;-72
2021/05/13 00:12:01;;;;;;;1.00;0.70;;;;;;;;;;5051956;28;20670;-72
2021/05/13 00:14:27;;;;;;;1.00;0.70;;;;;;;;;;5048246;28;20323;-72
2021/05/13 00:16:53;;;;;;;1.00;0.70;;;;;;;;;;5049820;28;20596;-72
2021/05/13 00:19:19;;;;;;;1.00;0.70;;;;;;;;;;5049698;28;20189;-73
2021/05/13 00:21:45;;;;;;;1.00;0.70;;;;;;;;;;5048064;28;20703;-72
2021/05/13 00:24:12;;;;;;;1.00;0.70;;;;;;;;;;5051181;28;20185;-72
2021/05/13 00:26:41;;;;;;;1.00;0.70;;;;;;;;;;5050157;28;20240;-72
2021/05/13 00:29:08;;;;;;;1.00;0.70;;;;;;;;;;5049106;28;20178;-72
2021/05/13 00:31:34;;;;;;;1.00;0.68;;;;;;;;;;5046799;28;21204;-73
2021/05/13 00:34:01;;;;;;;1.00;0.70;;;;;;;;;;5047618;28;20174;-73
2021/05/13 00:36:28;;;;;;;1.00;0.70;;;;;;;;;;5051084;28;20182;-72
2021/05/13 00:38:54;;;;;;;1.00;0.70;;;;;;;;;;5051714;28;20527;-72
2021/05/13 00:41:20;;;;;;;1.00;0.70;;;;;;;;;;5051904;28;20180;-72
2021/05/13 00:43:46;;;;;;;1.10;0.70;;;;;;;;;;5043942;28;20219;-72
2021/05/13 00:46:12;;;;;;;1.10;0.70;;;;;;;;;;5039502;28;20220;-72
2021/05/13 00:48:40;;;;;;;1.10;0.70;;;;;;;;;;5038466;28;20786;-72
2021/05/13 00:51:06;;;;;;;1.10;0.70;;;;;;;;;;5047766;28;20178;-72
2021/05/13 00:53:32;;;;;;;1.10;0.70;;;;;;;;;;5051601;28;20197;-72
2021/05/13 00:55:59;;;;;;;1.10;0.70;;;;;;;;;;5048007;28;20588;-72
2021/05/13 00:58:27;;;;;;;1.10;0.70;;;;;;;;;;5050087;28;20260;-73
2021/05/13 01:03:22;;;;;;;1.10;0.70;;;;;;;;;;5044987;28;20759;-73
2021/05/13 01:05:48;;;;;;;1.00;0.70;;;;;;;;;;5044060;28;20193;-72
2021/05/13 01:08:14;;;;;;;1.08;0.70;;;;;;;;;;5050637;28;20173;-72
2021/05/13 01:10:41;;;;;;;1.10;0.70;;;;;;;;;;5055742;28;20176;-72
2021/05/13 01:13:18;;;;;;;1.10;0.70;;;;;;;;;;5054514;28;20189;-72
2021/05/13 01:15:50;;;;;;;1.08;0.70;;;;;;;;;;5045938;28;20200;-72
2021/05/13 01:18:21;;;;;;;1.08;0.70;;;;;;;;;;5044729;28;20257;-72
2021/05/13 01:20:48;;;;;;;1.05;0.70;;;;;;;;;;5049776;28;20194;-73
2021/05/13 01:23:14;;;;;;;1.10;0.70;;;;;;;;;;5050385;28;20315;-72
2021/05/13 01:25:44;;;;;;;1.10;0.70;;;;;;;;;;5055376;28;20229;-72
2021/05/13 01:28:11;;;;;;;1.10;0.70;;;;;;;;;;5051858;28;20243;-72
2021/05/13 01:30:37;;;;;;;1.10;0.80;;;;;;;;;;5053795;28;20189;-72
2021/05/13 01:33:03;;;;;;;1.10;0.70;;;;;;;;;;5052300;28;20204;-72
2021/05/13 01:35:29;;;;;;;1.10;0.80;;;;;;;;;;5053058;28;20184;-72
2021/05/13 01:38:05;;;;;;;1.08;0.70;;;;;;;;;;5054614;28;20261;-72
2021/05/13 01:40:31;;;;;;;1.10;0.70;;;;;;;;;;5059894;28;20578;-72
2021/05/13 01:42:57;;;;;;;1.20;1.10;;;;;;;;;;5072072;28;20201;-72
2021/05/13 01:45:23;;;;;;;1.10;0.70;;;;;;;;;;5058142;28;20193;-72
2021/05/13 01:47:49;;;;;;;1.10;0.70;;;;;;;;;;5049699;28;20202;-72
2021/05/13 01:50:15;;;;;;;1.10;0.70;;;;;;;;;;5035330;28;20219;-72
2021/05/13 01:52:41;;;;;;;1.10;0.70;;;;;;;;;;5055978;28;20205;-72
2021/05/13 01:55:08;;;;;;;1.10;0.70;;;;;;;;;;5053601;28;20629;-72
2021/05/13 01:57:33;;;;;;;1.10;0.70;;;;;;;;;;5047416;28;20186;-72
2021/05/13 01:59:59;;;;;;;1.10;0.70;;;;;;;;;;5041234;28;20247;-72
2021/05/13 02:02:25;;;;;;;2.13;1.40;;;;;;;;;;5038586;28;20554;-73
2021/05/13 02:04:51;;;;;;;1.08;0.70;;;;;;;;;;5042701;28;20438;-72
2021/05/13 02:07:17;;;;;;;1.10;0.70;;;;;;;;;;5048527;28;20181;-73
2021/05/13 02:09:43;;;;;;;1.10;0.80;;;;;;;;;;5053566;28;20189;-72
2021/05/13 02:12:10;;;;;;;1.10;0.70;;;;;;;;;;5054425;28;20431;-73
2021/05/13 02:14:36;;;;;;;1.10;0.73;;;;;;;;;;5036797;28;20180;-72
2021/05/13 02:17:02;;;;;;;1.08;0.60;;;;;;;;;;5044621;28;20192;-72
2021/05/13 02:19:28;;;;;;;1.10;0.60;;;;;;;;;;5042292;28;20180;-72
2021/05/13 02:21:54;;;;;;;1.10;0.70;;;;;;;;;;5043287;28;20236;-72
2021/05/13 02:24:20;;;;;;;3.27;2.97;;;;;;;;;;5058665;28;20641;-72
2021/05/13 02:26:46;;;;;;;1.10;0.70;;;;;;;;;;5056698;28;20458;-72
2021/05/13 02:29:12;;;;;;;1.10;0.70;;;;;;;;;;5057769;28;20618;-72
2021/05/13 02:31:38;;;;;;;1.10;0.70;;;;;;;;;;5041855;28;20711;-72
2021/05/13 02:34:04;;;;;;;1.48;1.38;;;;;;;;;;5051703;28;20169;-72
2021/05/13 02:36:30;;;;;;;1.10;0.80;;;;;;;;;;5047578;28;20265;-72
2021/05/13 02:38:56;;;;;;;1.10;0.70;;;;;;;;;;5052483;28;20617;-72
2021/05/13 02:41:22;;;;;;;1.75;1.50;;;;;;;;;;5051571;28;20178;-72
2021/05/13 02:43:48;;;;;;;1.10;0.70;;;;;;;;;;5047545;28;20244;-72
2021/05/13 02:46:14;;;;;;;1.07;0.70;;;;;;;;;;5049950;28;20669;-72
2021/05/13 02:48:42;;;;;;;1.10;0.70;;;;;;;;;;5049956;28;20995;-72
2021/05/13 02:51:09;;;;;;;1.10;0.80;;;;;;;;;;5042475;28;20184;-72
2021/05/13 02:53:35;;;;;;;1.10;0.70;;;;;;;;;;5052919;28;20663;-72
2021/05/13 02:56:02;;;;;;;1.10;0.80;;;;;;;;;;5050513;28;20265;-72
2021/05/13 02:58:28;;;;;;;1.10;0.70;;;;;;;;;;5051083;28;20208;-72
2021/05/13 03:03:56;;;;;;;1.10;0.70;;;;;;;;;;5042535;22;20285;-70
2021/05/13 03:06:23;;;;;;;1.10;0.70;;;;;;;;;;5023084;28;20233;-69
2021/05/13 03:08:53;;;;;;;1.10;0.70;;;;;;;;;;5018623;28;20277;-68
2021/05/13 03:11:19;;;;;;;1.10;0.70;;;;;;;;;;5012995;28;20412;-70
2021/05/13 03:13:47;;;;;;;1.10;0.90;;;;;;;;;;5013318;28;20757;-68
2021/05/13 03:16:13;;;;;;;1.10;0.80;;;;;;;;;;5030667;28;20282;-69
2021/05/13 03:18:39;;;;;;;1.10;0.70;;;;;;;;;;5029532;28;20611;-69
2021/05/13 03:21:11;;;;;;;1.10;0.80;;;;;;;;;;5031034;28;20432;-69
2021/05/13 03:26:16;;;;;;;1.10;0.90;;;;;;;;;;5032582;28;20596;-68
2021/05/13 03:28:42;;;;;;;1.10;0.70;;;;;;;;;;5029441;28;20186;-68
2021/05/13 03:31:08;;;;;;;1.10;0.70;;;;;;;;;;5021678;28;20585;-69
2021/05/13 03:33:34;;;;;;;1.10;0.70;;;;;;;;;;5029618;28;20287;-69
2021/05/13 03:36:00;;;;;;;1.10;0.70;;;;;;;;;;5025893;28;20179;-68
2021/05/13 03:38:26;;;;;;;1.10;0.70;;;;;;;;;;5029438;28;20416;-68
2021/05/13 03:40:52;;;;;;;1.10;0.70;;;;;;;;;;5039170;28;20199;-71
2021/05/13 03:43:18;;;;;;;1.10;0.70;;;;;;;;;;5042362;28;20603;-69
2021/05/13 03:45:44;;;;;;;1.10;0.70;;;;;;;;;;5026896;28;20250;-68
2021/05/13 03:48:10;;;;;;;1.10;0.70;;;;;;;;;;5022645;28;20204;-68
2021/05/13 03:50:37;;;;;;;1.10;0.70;;;;;;;;;;5030125;28;20460;-68
2021/05/13 03:53:04;;;;;;;1.10;0.70;;;;;;;;;;5031710;28;20202;-69
2021/05/13 03:55:30;;;;;;;1.10;0.80;;;;;;;;;;5032114;28;20240;-68
2021/05/13 03:57:57;;;;;;;1.10;0.70;;;;;;;;;;5029340;28;20597;-71
2021/05/13 04:00:28;;;;;;;1.10;0.80;;;;;;;;;;5026389;28;20205;-71
2021/05/13 04:02:54;;;;;;;1.10;0.80;;;;;;;;;;5026591;28;20762;-70
2021/05/13 04:05:20;;;;;;;1.10;0.70;;;;;;;;;;5023936;28;20221;-71
2021/05/13 04:07:48;;;;;;;1.10;0.70;;;;;;;;;;5030188;28;20182;-71
2021/05/13 04:10:15;;;;;;;1.10;0.70;;;;;;;;;;5012149;28;20182;-69
2021/05/13 04:12:41;;;;;;;1.10;0.70;;;;;;;;;;5012494;28;20186;-68
2021/05/13 04:15:08;;;;;;;1.10;0.70;;;;;;;;;;5024620;28;20676;-69
2021/05/13 04:17:35;;;;;;;1.10;0.70;;;;;;;;;;5027467;28;20186;-69
2021/05/13 04:20:01;;;;;;;1.10;0.70;;;;;;;;;;5031021;28;20182;-69
2021/05/13 04:22:27;;;;;;;1.10;0.70;;;;;;;;;;5031013;28;20243;-68
2021/05/13 04:24:53;;;;;;;1.07;0.70;;;;;;;;;;5031303;28;20823;-69
2021/05/13 04:27:19;;;;;;;1.10;0.70;;;;;;;;;;5031492;28;20502;-69
2021/05/13 04:29:45;;;;;;;1.10;0.80;;;;;;;;;;5028566;28;20442;-69
2021/05/13 04:32:11;;;;;;;1.10;0.70;;;;;;;;;;5022516;28;20433;-69
2021/05/13 04:34:36;;;;;;;1.40;1.13;;;;;;;;;;5029743;28;20486;-69
2021/05/13 04:37:02;;;;;;;1.10;0.70;;;;;;;;;;5035922;28;20487;-69
2021/05/13 04:39:29;;;;;;;1.10;0.70;;;;;;;;;;5031116;28;20420;-69
2021/05/13 04:41:54;;;;;;;1.05;0.70;;;;;;;;;;5027111;28;20700;-68
2021/05/13 04:44:20;;;;;;;1.10;0.70;;;;;;;;;;5035447;28;20338;-71
2021/05/13 04:46:49;;;;;;;1.10;0.70;;;;;;;;;;5029390;28;20472;-71
2021/05/13 04:49:17;;;;;;;1.10;0.70;;;;;;;;;;5026958;28;20224;-69
2021/05/13 04:51:45;;;;;;;1.10;0.70;;;;;;;;;;5036210;28;20182;-69
2021/05/13 04:54:12;;;;;;;1.10;0.70;;;;;;;;;;5035219;28;20240;-69
2021/05/13 04:56:38;;;;;;;1.10;0.70;;;;;;;;;;5035677;28;20261;-69
2021/05/13 04:59:04;;;;;;;1.10;0.70;;;;;;;;;;5031893;28;20534;-69
2021/05/13 05:01:30;;;;;;;1.10;0.70;;;;;;;;;;5030932;28;20212;-71
2021/05/13 05:03:56;;;;;;;1.10;0.70;;;;;;;;;;5016784;28;20275;-69
2021/05/13 05:06:22;;;;;;;1.10;0.70;;;;;;;;;;5033355;28;20630;-69
2021/05/13 05:08:48;;;;;;;1.10;0.70;;;;;;;;;;5033360;28;20186;-69
2021/05/13 05:11:16;;;;;;;1.10;0.70;;;;;;;;;;5035333;28;20434;-69
2021/05/13 05:13:42;;;;;;;1.10;0.70;;;;;;;;;;5035281;28;20213;-69
2021/05/13 05:16:08;;;;;;;1.10;0.70;;;;;;;;;;5035713;28;20587;-72
2021/05/13 05:18:34;;;;;;;1.10;0.70;;;;;;;;;;5030773;28;20440;-72
2021/05/13 05:21:00;;;;;;;1.10;0.70;;;;;;;;;;5034012;28;20186;-72
2021/05/13 05:23:29;;;;;;;1.10;0.70;;;;;;;;;;5034760;28;20684;-72
2021/05/13 05:25:56;;;;;;;1.10;0.70;;;;;;;;;;5035218;28;20242;-72
2021/05/13 05:28:22;;;;;;;1.08;0.70;;;;;;;;;;5026984;28;20664;-72
2021/05/13 05:30:48;;;;;;;1.00;0.70;;;;;;;;;;5033390;28;20220;-72
2021/05/13 05:33:14;;;;;;;1.10;0.70;;;;;;;;;;5017878;28;20201;-70
2021/05/13 05:35:40;;;;;;;1.07;0.70;;;;;;;;;;5024135;28;20193;-69
2021/05/13 05:38:08;;;;;;;1.10;0.70;;;;;;;;;;5029239;28;20413;-69
2021/05/13 05:40:34;;;;;;;1.02;0.70;;;;;;;;;;5033502;28;20285;-69
2021/05/13 05:43:00;;;;;;;1.17;1.00;;;;;;;;;;5030345;28;20218;-70
2021/05/13 05:45:26;;;;;;;1.08;0.80;;;;;;;;;;5029804;28;20206;-70
2021/05/13 05:47:59;;;;;;;1.10;0.70;;;;;;;;;;5032677;28;20194;-70
2021/05/13 05:50:25;;;;;;;1.05;0.80;;;;;;;;;;5037530;28;20184;-72
2021/05/13 05:52:51;;;;;;;1.00;0.70;;;;;;;;;;5033857;28;20218;-70
2021/05/13 05:55:17;;;;;;;1.00;0.70;;;;;;;;;;5033730;28;20237;-70
2021/05/13 05:57:44;;;;;;;1.02;0.70;;;;;;;;;;5032941;28;20877;-70
2021/05/13 06:00:10;;;;;;;1.33;1.23;;;;;;;;;;5034633;28;20193;-70
2021/05/13 06:02:36;;;;;;;1.00;0.70;;;;;;;;;;5027069;28;20190;-70
2021/05/13 06:05:03;;;;;;;1.00;0.70;;;;;;;;;;5030829;28;20210;-70
2021/05/13 06:07:29;;;;;;;1.10;0.70;;;;;;;;;;5033390;28;20276;-70
2021/05/13 06:09:57;;;;;;;1.00;0.60;;;;;;;;;;5033733;28;20277;-70
2021/05/13 06:12:23;;;;;;;1.00;0.60;;;;;;;;;;5033976;28;20822;-70
2021/05/13 06:14:50;;;;;;;1.00;0.60;;;;;;;;;;5033740;28;20194;-70
2021/05/13 06:17:16;;;;;;;1.00;0.60;;;;;;;;;;5029391;28;20587;-70
2021/05/13 06:19:42;;;;;;;1.00;0.60;;;;;;;;;;5028003;28;20214;-70
2021/05/13 06:22:09;;;;;;;1.02;0.73;;;;;;;;;;5031744;28;20589;-70
2021/05/13 06:24:35;;;;;;;1.00;0.70;;;;;;;;;;5033663;28;20198;-70
2021/05/13 06:27:02;;;;;;;1.00;0.70;;;;;;;;;;5032864;28;20194;-70
2021/05/13 06:29:29;;;;;;;1.00;0.70;;;;;;;;;;5033477;28;20184;-70
2021/05/13 06:31:58;;;;;;;1.00;0.70;;;;;;;;;;5033347;28;20178;-70
2021/05/13 06:34:24;;;;;;;1.00;0.60;;;;;;;;;;5021574;28;20203;-70
2021/05/13 06:36:51;;;;;;;1.00;0.75;;;;;;;;;;5024443;28;20193;-70
2021/05/13 06:39:17;;;;;;;1.00;0.70;;;;;;;;;;5031327;28;20178;-70
2021/05/13 06:41:43;;;;;;;1.00;0.60;;;;;;;;;;5033635;28;20232;-70
2021/05/13 06:44:09;;;;;;;1.00;0.70;;;;;;;;;;5031818;28;20565;-70
2021/05/13 06:46:35;;;;;;;1.00;0.60;;;;;;;;;;5024947;28;20673;-70
2021/05/13 06:49:01;;;;;;;1.00;0.60;;;;;;;;;;5029600;28;20240;-70
2021/05/13 06:51:28;;;;;;;1.00;0.60;;;;;;;;;;5024944;28;20185;-70
2021/05/13 06:53:54;;;;;;;1.00;0.60;;;;;;;;;;5033289;28;20194;-70
2021/05/13 06:56:21;;;;;;;1.00;0.60;;;;;;;;;;5031675;28;20264;-71
2021/05/13 06:58:47;;;;;;;1.00;0.60;;;;;;;;;;5030635;28;20190;-70
2021/05/13 07:01:13;;;;;;;1.00;0.70;;;;;;;;;;5024438;28;20187;-72
2021/05/13 07:03:39;;;;;;;1.00;0.60;;;;;;;;;;5028055;28;20214;-70
2021/05/13 07:06:05;;;;;;;1.00;0.60;;;;;;;;;;5027413;28;20206;-70
2021/05/13 07:08:31;;;;;;;1.00;0.60;;;;;;;;;;5032578;28;20421;-70
2021/05/13 07:10:59;;;;;;;1.00;0.60;;;;;;;;;;5031083;28;20186;-70
2021/05/13 07:13:25;;;;;;;1.00;0.70;;;;;;;;;;5031123;28;20216;-70
2021/05/13 07:15:51;;;;;;;1.00;0.60;;;;;;;;;;5032626;28;20191;-70
2021/05/13 07:18:17;;;;;;;1.00;0.60;;;;;;;;;;5026808;28;20696;-70
2021/05/13 07:20:44;;;;;;;1.00;0.60;;;;;;;;;;5023434;28;20968;-68
2021/05/13 07:23:10;;;;;;;1.00;0.60;;;;;;;;;;5028965;28;20696;-69
2021/05/13 07:25:37;;;;;;;1.00;0.70;;;;;;;;;;5027672;28;20266;-69
2021/05/13 07:28:03;;;;;;;1.00;0.60;;;;;;;;;;5019466;28;20182;-68
2021/05/13 07:30:29;;;;;;;1.00;0.60;;;;;;;;;;5023354;28;20243;-69
2021/05/13 07:32:56;;;;;;;1.00;0.60;;;;;;;;;;5021354;28;20207;-70
2021/05/13 07:35:22;;;;;;;1.00;0.75;;;;;;;;;;5021541;28;20183;-68
2021/05/13 07:37:49;;;;;;;1.00;0.60;;;;;;;;;;5021658;28;20230;-69
2021/05/13 07:40:17;;;;;;;1.00;0.60;;;;;;;;;;5028549;28;20295;-73
2021/05/13 07:42:43;;;;;;;1.00;0.60;;;;;;;;;;5027876;28;20209;-70
2021/05/13 07:45:10;;;;;;;1.00;0.60;;;;;;;;;;5031772;28;20209;-70
2021/05/13 07:47:40;;;;;;;0.93;0.60;;;;;;;;;;5030748;28;20263;-70
2021/05/13 07:50:07;;;;;;;0.90;0.60;;;;;;;;;;5031370;28;20189;-70
2021/05/13 07:52:33;;;;;;;1.00;0.60;;;;;;;;;;5028686;28;20238;-70
2021/05/13 07:55:00;;;;;;;0.90;0.60;;;;;;;;;;5032639;28;20206;-70
2021/05/13 07:57:26;;;;;;;0.90;0.60;;;;;;;;;;5028495;28;20192;-70
2021/05/13 07:59:52;;;;;;;0.90;0.60;;;;;;;;;;5029144;28;20472;-70
2021/05/13 08:02:18;;;;;;;0.90;0.60;;;;;;;;;;5027270;28;20197;-71
2021/05/13 08:04:44;;;;;;;0.90;0.60;;;;;;;;;;5031870;28;20215;-71
2021/05/13 08:07:10;;;;;;;0.90;0.60;;;;;;;;;;5029855;28;20553;-71
2021/05/13 08:09:36;;;;;;;0.90;0.60;;;;;;;;;;5031962;28;20408;-71
2021/05/13 08:12:02;;;;;;;0.90;0.60;;;;;;;;;;5029459;28;21013;-73
2021/05/13 08:14:28;;;;;;;0.90;0.60;;;;;;;;;;5024663;28;20479;-71
2021/05/13 08:16:54;;;;;;;0.90;0.60;;;;;;;;;;5019998;28;20906;-71
2021/05/13 08:19:20;;;;;;;0.90;0.60;;;;;;;;;;5020955;28;20433;-71
2021/05/13 08:21:46;;;;;;;0.90;0.60;;;;;;;;;;5026584;28;20918;-70
2021/05/13 08:24:12;;;;;;;0.90;0.60;;;;;;;;;;5030506;28;20472;-70
2021/05/13 08:26:38;;;;;;;0.90;0.60;;;;;;;;;;5030704;28;20964;-71
2021/05/13 08:29:04;;;;;;;0.90;0.60;;;;;;;;;;5027876;28;20418;-70
2021/05/13 08:31:31;;;;;;;0.90;0.60;;;;;;;;;;5025064;28;20418;-70
2021/05/13 08:33:57;;;;;;;0.90;0.60;;;;;;;;;;5025320;28;20419;-70
2021/05/13 08:36:23;;;;;;;0.90;0.60;;;;;;;;;;5029415;28;20785;-70
2021/05/13 08:38:49;;;;;;;0.90;0.60;;;;;;;;;;5031695;28;20403;-70
2021/05/13 08:41:15;;;;;;;0.90;0.70;;;;;;;;;;5032404;28;20424;-71
2021/05/13 08:43:43;;;;;;;0.90;0.60;;;;;;;;;;5032988;28;20443;-71
2021/05/13 08:46:09;;;;;;;0.90;0.60;;;;;;;;;;5031870;28;20469;-70
2021/05/13 08:48:35;;;;;;;0.87;0.60;;;;;;;;;;5024047;28;20437;-71
2021/05/13 08:51:01;;;;;;;0.90;0.70;;;;;;;;;;5024351;28;20807;-71
2021/05/13 08:53:30;;;;;;;0.90;0.60;;;;;;;;;;5028449;28;20935;-71
2021/05/13 08:55:56;;;;;;;0.80;0.60;;;;;;;;;;5029172;28;20984;-71
2021/05/13 08:58:22;;;;;;;0.80;0.60;;;;;;;;;;5029555;28;20444;-71
2021/05/13 09:00:52;;;;;;;0.80;0.50;;;;;;;;;;5031095;28;20440;-71
2021/05/13 09:03:37;;;;;;;0.80;0.50;;;;;;;;;;5026650;28;21095;-71
2021/05/13 09:06:06;;;;;;;0.80;0.50;;;;;;;;;;5028529;28;20512;-71
2021/05/13 09:08:33;;;;;;;0.80;0.50;;;;;;;;;;5052970;22;21003;-70
2021/05/13 09:11:09;;;;;;;0.80;0.50;;;;;;;;;;5052559;28;20515;-70
2021/05/13 09:13:35;;;;;;;0.80;0.50;;;;;;;;;;5049763;28;20930;-70
2021/05/13 09:16:02;;;;;;;0.80;0.50;;;;;;;;;;5058462;28;20435;-70
2021/05/13 09:18:32;;;;;;;0.70;0.50;;;;;;;;;;5050024;28;20893;-70
2021/05/13 09:21:05;;;;;;;0.70;0.50;;;;;;;;;;5046889;28;20405;-70
2021/05/13 09:23:31;;;;;;;0.70;0.50;;;;;;;;;;5050742;28;20452;-72
2021/05/13 09:26:10;;;;;;;0.70;0.60;;;;;;;;;;5049471;28;20460;-70
2021/05/13 09:28:37;;;;;;;0.70;0.50;;;;;;;;;;5050561;28;20439;-70
2021/05/13 09:31:03;;;;;;;0.70;0.50;;;;;;;;;;5053335;28;20428;-70
2021/05/13 09:33:30;;;;;;;0.70;0.50;;;;;;;;;;5048455;28;20440;-70
2021/05/13 09:35:56;;;;;;;0.70;0.50;;;;;;;;;;5056060;28;20537;-70
2021/05/13 09:38:32;;;;;;;0.70;0.50;;;;;;;;;;5054000;28;20447;-70
2021/05/13 09:40:58;;;;;;;0.67;0.50;;;;;;;;;;5051591;28;20431;-70
2021/05/13 09:43:25;;;;;;;0.70;0.50;;;;;;;;;;5052808;28;20415;-70
2021/05/13 09:45:51;;;;;;;0.60;0.50;;;;;;;;;;5053088;28;20463;-70
2021/05/13 09:48:36;;;;;;;0.60;0.50;;;;;;;;;;5052446;28;20471;-73
2021/05/13 09:51:16;;;;;;;0.60;0.50;;;;;;;;;;5050733;28;20559;-71
2021/05/13 09:53:42;;;;;;;0.60;0.50;;;;;;;;;;5051231;28;20906;-73
2021/05/13 09:56:28;;;;;;;0.60;0.50;;;;;;;;;;5059186;28;20652;-70
2021/05/13 09:58:54;;;;;;;0.60;0.50;;;;;;;;;;5050266;28;20447;-70
2021/05/13 10:01:20;;;;;;;0.60;0.50;;;;;;;;;;5051131;28;20511;-70
2021/05/13 10:03:47;;;;;;;0.60;0.50;;;;;;;;;;5053328;28;20438;-73
2021/05/13 10:06:13;;;;;;;0.60;0.50;;;;;;;;;;5050896;28;20603;-70
2021/05/13 10:08:42;;;;;;;0.60;0.50;;;;;;;;;;5050415;28;20483;-70
2021/05/13 10:11:08;;;;;;;0.60;0.50;;;;;;;;;;5051016;28;20436;-70
2021/05/13 10:13:34;;;;;;;0.60;0.50;;;;;;;;;;5053279;28;20429;-71
2021/05/13 10:16:01;;;;;;;0.60;0.50;;;;;;;;;;5052255;28;20465;-71
2021/05/13 10:18:35;;;;;;;0.60;0.50;;;;;;;;;;5050308;28;20461;-71
2021/05/13 10:21:05;;;;;;;0.60;0.50;;;;;;;;;;5051832;28;20438;-71
2021/05/13 10:23:32;;;;;;;0.60;0.50;;;;;;;;;;5052799;28;20444;-71
2021/05/13 10:25:58;;;;;;;0.60;0.50;;;;;;;;;;5052378;28;20466;-71
2021/05/13 10:28:28;;;;;;;0.60;0.50;;;;;;;;;;5051589;28;20439;-70
2021/05/13 10:31:05;;;;;;;0.60;0.50;;;;;;;;;;5051967;28;20445;-71
2021/05/13 10:33:44;;;;;;;0.60;0.50;;;;;;;;;;5052258;28;20444;-71
2021/05/13 10:36:14;;;;;;;0.60;0.50;;;;;;;;;;5049840;28;20442;-71
2021/05/13 10:38:41;;;;;;;0.60;0.50;;;;;;;;;;5048215;28;20465;-70
2021/05/13 10:41:26;;;;;;;0.60;0.50;;;;;;;;;;5052478;28;20446;-71
2021/05/13 10:43:52;;;;;;;0.60;0.50;;;;;;;;;;5051263;28;20411;-70
2021/05/13 10:46:26;;;;;;;0.63;0.57;;;;;;;;;;5051786;28;20472;-70
2021/05/13 10:48:52;;;;;;;0.60;0.50;;;;;;;;;;5051943;28;20452;-71
2021/05/13 10:51:25;;;;;;;0.70;0.70;;;;;;;;;;5050025;28;20843;-70
2021/05/13 10:53:51;;;;;;;0.60;0.50;;;;;;;;;;5051075;28;20435;-71
2021/05/13 10:56:22;;;;;;;0.60;0.50;;;;;;;;;;5052112;28;20417;-70
2021/05/13 10:59:00;;;;;;;0.60;0.50;;;;;;;;;;5050507;28;20452;-71
2021/05/13 11:01:29;;;;;;;0.60;0.50;;;;;;;;;;5049673;28;20439;-70
2021/05/13 11:04:13;;;;;;;0.60;0.50;;;;;;;;;;5050331;28;20447;-71
2021/05/13 11:06:43;;;;;;;0.60;0.50;;;;;;;;;;5050203;28;20466;-71
2021/05/13 11:09:09;;;;;;;0.60;0.50;;;;;;;;;;5049269;28;20535;-71
2021/05/13 11:12:06;;;;;;;0.60;0.50;;;;;;;;;;5053045;28;20412;-71
2021/05/13 11:14:32;;;;;;;0.60;0.40;;;;;;;;;;5051927;28;20479;-70
2021/05/13 11:17:01;;;;;;;0.60;0.50;;;;;;;;;;5050392;28;20464;-70
2021/05/13 11:19:30;;;;;;;0.60;0.50;;;;;;;;;;5049606;28;20468;-70
2021/05/13 11:21:59;;;;;;;0.60;0.40;;;;;;;;;;5050766;28;20566;-70
2021/05/13 11:24:31;;;;;;;0.60;0.50;;;;;;;;;;5051798;28;20436;-70
2021/05/13 11:26:57;;;;;;;0.60;0.50;;;;;;;;;;5050829;28;20550;-70
2021/05/13 11:29:23;;;;;;;0.60;0.40;;;;;;;;;;5048854;28;20593;-70
2021/05/13 11:31:52;;;;;;;0.60;0.40;;;;;;;;;;5050572;28;20433;-71
2021/05/13 11:34:22;;;;;;;0.60;0.40;;;;;;;;;;5050007;28;20932;-71
2021/05/13 11:36:48;;;;;;;0.60;0.40;;;;;;;;;;5048924;28;20469;-70
2021/05/13 11:39:17;;;;;;;0.60;0.50;;;;;;;;;;5049761;28;20456;-70
2021/05/13 11:41:49;;;;;;;0.60;0.40;;;;;;;;;;5056502;28;20948;-71
2021/05/13 11:44:21;;;;;;;0.50;0.40;;;;;;;;;;5043923;28;20792;-71
2021/05/13 11:46:51;;;;;;;0.50;0.40;;;;;;;;;;5050376;28;20464;-71
2021/05/13 11:49:17;;;;;;;0.50;0.40;;;;;;;;;;5049154;28;20867;-71
2021/05/13 11:51:43;;;;;;;0.50;0.40;;;;;;;;;;5048909;28;20477;-71
2021/05/13 11:54:09;;;;;;;0.50;0.40;;;;;;;;;;5049517;28;20445;-71
2021/05/13 11:56:36;;;;;;;0.50;0.47;;;;;;;;;;5050824;28;20432;-71
2021/05/13 11:59:03;;;;;;;0.50;0.40;;;;;;;;;;5048971;28;20455;-71
2021/05/13 12:01:32;;;;;;;0.50;0.40;;;;;;;;;;5047295;28;20511;-71
2021/05/13 12:04:06;;;;;;;0.50;0.40;;;;;;;;;;5049217;28;20459;-71
2021/05/13 12:07:02;;;;;;;0.50;0.40;;;;;;;;;;5049095;28;20543;-71
2021/05/13 12:09:31;;;;;;;0.50;0.40;;;;;;;;;;5050179;28;20574;-71
2021/05/13 12:11:57;;;;;;;0.60;0.50;;;;;;;;;;5059208;28;20419;-71
2021/05/13 12:14:26;;;;;;;0.50;0.40;;;;;;;;;;5049411;28;20428;-71
2021/05/13 12:17:22;;;;;;;0.50;0.40;;;;;;;;;;5046201;28;20436;-72
2021/05/13 12:19:48;;;;;;;0.50;0.40;;;;;;;;;;5036339;28;20474;-72
2021/05/13 12:22:14;;;;;;;0.50;0.40;;;;;;;;;;5050541;28;20456;-71
2021/05/13 12:24:42;;;;;;;0.50;0.40;;;;;;;;;;5050036;28;20424;-74
2021/05/13 12:27:10;;;;;;;0.50;0.40;;;;;;;;;;5049869;28;20471;-72
2021/05/13 12:29:40;;;;;;;0.50;0.40;;;;;;;;;;5049321;28;20486;-73
2021/05/13 12:32:06;;;;;;;0.50;0.50;;;;;;;;;;5050650;28;20482;-72
2021/05/13 12:34:36;;;;;;;0.60;0.50;;;;;;;;;;5043018;28;20463;-72
2021/05/13 12:37:06;;;;;;;0.50;0.40;;;;;;;;;;5050363;28;20442;-72
2021/05/13 12:39:35;;;;;;;0.50;0.40;;;;;;;;;;5049430;28;20498;-71
2021/05/13 12:42:01;;;;;;;0.50;0.40;;;;;;;;;;5053846;28;20432;-72
2021/05/13 12:44:28;;;;;;;0.50;0.40;;;;;;;;;;5052992;28;20432;-72
2021/05/13 12:46:58;;;;;;;0.50;0.40;;;;;;;;;;5051323;28;20521;-72
2021/05/13 12:49:26;;;;;;;0.50;0.40;;;;;;;;;;5050141;28;20463;-72
2021/05/13 12:52:00;;;;;;;0.50;0.40;;;;;;;;;;5047709;28;20945;-72
2021/05/13 12:54:27;;;;;;;0.50;0.40;;;;;;;;;;5049786;28;20522;-72
2021/05/13 12:57:08;;;;;;;0.50;0.50;;;;;;;;;;5050896;28;20495;-71
2021/05/13 12:59:34;;;;;;;0.50;0.40;;;;;;;;;;5049414;28;20879;-71
2021/05/13 13:02:00;;;;;;;0.50;0.40;;;;;;;;;;5051017;28;20447;-71
2021/05/13 13:04:26;;;;;;;0.50;0.40;;;;;;;;;;5051029;28;20437;-71
2021/05/13 13:06:55;;;;;;;0.50;0.50;;;;;;;;;;5053441;28;20575;-71
2021/05/13 13:09:34;;;;;;;0.50;0.40;;;;;;;;;;5052784;28;20475;-71
2021/05/13 13:12:03;;;;;;;0.50;0.40;;;;;;;;;;5052213;28;20427;-71
2021/05/13 13:14:35;;;;;;;0.50;0.40;;;;;;;;;;5054644;28;20469;-72
2021/05/13 13:17:01;;;;;;;0.50;0.40;;;;;;;;;;5055123;28;20459;-71
2021/05/13 13:19:27;;;;;;;0.50;0.40;;;;;;;;;;5052744;28;20981;-71
2021/05/13 13:22:00;;;;;;;0.50;0.40;;;;;;;;;;5054716;28;20412;-71
2021/05/13 13:24:27;;;;;;;0.50;0.40;;;;;;;;;;5048590;28;20431;-71
2021/05/13 13:27:00;;;;;;;0.50;0.40;;;;;;;;;;5053603;28;20483;-71
2021/05/13 13:29:27;;;;;;;0.60;0.50;;;;;;;;;;5051771;28;20463;-72
2021/05/13 13:31:58;;;;;;;0.60;0.50;;;;;;;;;;5056666;28;20432;-72
2021/05/13 13:34:34;;;;;;;0.50;0.40;;;;;;;;;;5059795;28;20427;-72
2021/05/13 13:37:00;;;;;;;0.50;0.40;;;;;;;;;;5052498;28;20981;-72
2021/05/13 13:39:26;;;;;;;0.50;0.40;;;;;;;;;;5051340;28;21491;-71
2021/05/13 13:41:52;;;;;;;0.50;0.40;;;;;;;;;;5053077;28;20476;-71
2021/05/13 13:44:18;;;;;;;0.50;0.40;;;;;;;;;;5065190;28;20439;-71
2021/05/13 13:46:44;;;;;;;0.50;0.40;;;;;;;;;;5053452;28;20964;-71
2021/05/13 13:49:10;;;;;;;0.50;0.40;;;;;;;;;;5053959;28;20431;-71
2021/05/13 13:51:36;;;;;;;0.50;0.40;;;;;;;;;;5053494;28;20485;-71
2021/05/13 13:54:02;;;;;;;0.50;0.40;;;;;;;;;;5051129;28;20442;-71
2021/05/13 13:56:28;;;;;;;0.57;0.40;;;;;;;;;;5051130;28;20794;-71
2021/05/13 13:58:54;;;;;;;0.50;0.40;;;;;;;;;;5050780;28;20487;-70
2021/05/13 14:01:20;;;;;;;0.60;0.47;;;;;;;;;;5054130;28;20950;-70
2021/05/13 14:03:46;;;;;;;0.60;0.40;;;;;;;;;;5052290;28;20948;-71
2021/05/13 14:06:12;;;;;;;0.60;0.40;;;;;;;;;;5053939;28;21040;-72
2021/05/13 14:08:38;;;;;;;0.60;0.40;;;;;;;;;;5050900;28;20477;-70
2021/05/13 14:11:05;;;;;;;0.60;0.40;;;;;;;;;;5051855;28;20433;-71
2021/05/13 14:13:31;;;;;;;0.60;0.40;;;;;;;;;;5052319;28;20423;-71
2021/05/13 14:15:58;;;;;;;0.60;0.40;;;;;;;;;;5051865;28;20454;-71
2021/05/13 14:18:24;;;;;;;0.60;0.50;;;;;;;;;;5053369;28;20431;-71
2021/05/13 14:20:50;;;;;;;0.60;0.40;;;;;;;;;;5052736;28;20427;-71
2021/05/13 14:23:16;;;;;;;0.60;0.47;;;;;;;;;;5051390;28;20494;-71
2021/05/13 14:25:42;;;;;;;0.60;0.50;;;;;;;;;;5046839;28;20469;-71
2021/05/13 14:28:08;;;;;;;0.60;0.43;;;;;;;;;;5053489;28;20542;-71
2021/05/13 14:30:34;;;;;;;0.60;0.50;;;;;;;;;;5052649;28;20455;-70
2021/05/13 14:33:00;;;;;;;0.60;0.50;;;;;;;;;;5046141;28;20440;-71
2021/05/13 14:35:27;;;;;;;0.60;0.50;;;;;;;;;;5047008;28;20437;-71
2021/05/13 14:38:01;;;;;;;0.60;0.50;;;;;;;;;;5048624;28;20451;-72
2021/05/13 14:40:27;;;;;;;0.60;0.50;;;;;;;;;;5044415;28;20454;-70
2021/05/13 14:42:54;;;;;;;0.60;0.50;;;;;;;;;;5049445;28;20469;-70
2021/05/13 14:45:20;;;;;;;0.60;0.50;;;;;;;;;;5044017;28;20798;-70
2021/05/13 14:47:54;;;;;;;0.60;0.50;;;;;;;;;;5046494;28;20447;-70
2021/05/13 14:50:25;;;;;;;0.60;0.50;;;;;;;;;;5046552;28;20432;-70
2021/05/13 14:52:51;;;;;;;0.60;0.50;;;;;;;;;;5045613;28;20490;-70
2021/05/13 14:55:17;;;;;;;0.60;0.50;;;;;;;;;;5052115;28;20427;-71